Winnemucca, NV

1:01 AM PDT on August 29, 2014 (GMT -0700)
Rome State | Change Station
CLOSE
Current Station
Airport
Location: Rome,
Elevation: 4049 ft
Nearby Weather Stations

Elev 4049 ft 42.59 °N, 117.86 °W | Updated 9 minutes ago

Clear
Clear
64 °F
Feels Like 64 °F
N
6
Wind Variable Wind from South
Gusts 9 mph

Today
High -- | Low -- °F
--% Chance of Precip.
Yesterday
High -- | Low -- °F
Precip. -- in
6:14 AM 7:28 PM
Waxing Crescent, 12% visible
Pressure 29.91 in
Visibility -9999.0 miles
Clouds
Dew Point 33 °F
Humidity 31%
Rainfall 0.00 in
Snow Depth Not available.
UV Not available.
Pollen 8.10 out of 12
Air Quality Not available.
Flu Activity Not available.
METAR KREO 290752Z AUTO 19005KT 18/01 A3005 RMK AO1 SLP129 T01780006 403390128

More Conditions Fewer Conditions

Pressure 29.91 in
Visibility -9999.0 miles
Clouds
Dew Point 33 °F
Humidity 31%
Rainfall 0.00 in
Snow Depth Not available.
UV Not available.
Pollen 8.10 out of 12
Air Quality Not available.
Flu Activity Not available.
METAR KREO 290752Z AUTO 19005KT 18/01 A3005 RMK AO1 SLP129 T01780006 403390128

More Conditions Fewer Conditions

10-Day Weather Forecast

Almanac

Astronomy

Aug. 29, 2014 Rise Set
Actual Time 6:14 AM PDT 7:28 PM PDT
Civil Twilight 5:46 AM PDT 7:56 PM PDT
Nautical Twilight 5:12 AM PDT 8:30 PM PDT
Astronomical Twilight 4:36 AM PDT 9:06 PM PDT
Moon 10:11 AM PDT 9:26 PM PDT
Length of Visible Light 14h 10m
Length of Day
13h 13m
Tomorrow will be 2m 36s shorter.
Waxing Crescent, 12% of the Moon is Illuminated
Today
Waxing Crescent
Sep 2
First Quarter
Sep 8
Full
Sep 15
Last Quarter
Sep 24
New

Today's Extremes

State Highs State Lows

Community

WunderPhotos

Upload Photos

1,748,197 photos uploaded!

Nearby

Snow Depth

Station Depth Elevation
Lamance Creek 1 in 6000 ft
Granite Peak 0 in 7800 ft
Buckskin Lower 3 in 6700 ft
Lewis Peak 0 in 7400 ft
Taylor Canyon 1 in 6200 ft

Earthquake Activity

City Distance Mag. Time & Date
Lakeview, Oregon 109 miles 3.1 10:04 AM PDT
2014-08-26
Minimum magnitude displayed is 2.5.

Coastal Water Temperatures

Place Temperature
No Stations Reporting

Nearby Weather Stations